CDM2 weather

Didsbury/Minty Field
Didsbury, Alberta, Canada

Public forecast

Using degrees Celsius for public forecast. Weather courtesy of forecast.io.

Closest aviation weather report (METAR) to Didsbury/Minty Field

Closest report is Calgary / Springbank Airport, 33.1 nm (61.2 km) S. Retrieved 2020/07/04 21:00 UTC (58 minutes ago):

CYBW 042100Z AUTO 29022G32KT 9SM CLR 17/06 A2997 RMK LTNG DIST E SLP151 DENSITY ALT 5000FT

Closest aviation forecast (TAF) to Didsbury/Minty Field

Closest forecast is Calgary / Springbank Airport, 33.1 nm (61.2 km) S. Retrieved 2020/07/04 18:00 UTC (4 hours ago):

TAF CYBW 041738Z 0418/0504 16006KT P6SM SCT060 TEMPO 0418/0420 P6SM -SHRA BKN060 PROB30 0418/0420 VRB20G30KT 3SM TSRA BR OVC060CB FM042000 30015KT P6SM BKN080 TEMPO 0420/0423 P6SM -SHRA BKN060 PROB30 0420/0423 VRB20G30KT 3SM TSRA BR OVC060CB FM042300 30015KT P6SM SCT080 BECMG 0501/0503 30005KT RMK FCST BASED ON AUTO OBS NXT FCST BY 050000Z